LZPP

Piešťany Airport

Piešťany, Slovakia (Slovak Republic)
TAF LZPP 151100Z 1512/1521 34007KT CAVOK TEMPO 1512/1515 33013KT 9999 SCT040 BECMG 1518/1520 02004KT
Issued Valid From Valid To
Aug-15 @ 11:00 UTC
(2 hours ago)
Aug-15 @ 12:00 UTC
(40 minutes ago)
Aug-15 @ 21:00 UTC
(in 8 hours)
Aug-15 @ 12:00 to Aug-15 @ 18:00
TAF LZPP 151100Z 1512/1521 34007KT CAVOK
Wind Visibility Clouds Conditions
340° at 7 knots 10,000+ meters
  • No significant clouds
Temporary Aug-15 @ 12:00 to Aug-15 @ 15:00
TEMPO 1512/1515 33013KT 9999 SCT040
Wind Visibility Clouds
330° at 13 knots 10,000+ meters
  • Scattered at 4,000' AGL
Becoming Aug-15 @ 18:00 to Aug-15 @ 21:00
BECMG 1518/1520 02004KT
Wind Visibility Clouds Conditions
20° at 4 knots 10,000+ meters
  • No significant clouds
TAF LZPP 151100Z 1512/1521 34007KT CAVOK TEMPO 1512/1515 33013KT 9999 SCT040 BECMG 1518/1520 02004KT
Issued Aug-15 @ 11:00 UTC
(2 hours ago)
Valid From Aug-15 @ 12:00 UTC
(40 minutes ago)
Valid To Aug-15 @ 21:00 UTC
(in 8 hours)
Aug-15 @ 12:00 - Aug-15 @ 18:00
Wind Visibility
340° at 7 knots 10,000+ meters
Clouds
  • No significant clouds
Conditions
Temporary Aug-15 @ 12:00 - Aug-15 @ 15:00
Wind Visibility
330° at 13 knots 10,000+ meters
Clouds
  • Scattered at 4,000' AGL
Becoming Aug-15 @ 18:00 - Aug-15 @ 21:00
Wind Visibility
20° at 4 knots 10,000+ meters
Clouds
  • No significant clouds
Conditions